地図

経路データ

SID SEASON NUMBER BASIN SUBBASIN NAME ISO_TIME NATURE LAT LON WMO_WIND WMO_PRES WMO_AGENCY TRACK_TYPE DIST2LAND LANDFALL IFLAG USA_AGENCY USA_ATCF_ID USA_LAT USA_LON USA_RECORD USA_STATUS USA_WIND USA_PRES USA_SSHS USA_R34_NE USA_R34_SE USA_R34_SW USA_R34_NW USA_R50_NE USA_R50_SE USA_R50_SW USA_R50_NW USA_R64_NE USA_R64_SE USA_R64_SW USA_R64_NW USA_POCI USA_ROCI USA_RMW USA_EYE TOKYO_LAT TOKYO_LON TOKYO_GRADE TOKYO_WIND TOKYO_PRES TOKYO_R50_DIR TOKYO_R50_LONG TOKYO_R50_SHORT TOKYO_R30_DIR TOKYO_R30_LONG TOKYO_R30_SHORT TOKYO_LAND CMA_LAT CMA_LON CMA_CAT CMA_WIND CMA_PRES HKO_LAT HKO_LON HKO_CAT HKO_WIND HKO_PRES NEWDELHI_LAT NEWDELHI_LON NEWDELHI_GRADE NEWDELHI_WIND NEWDELHI_PRES NEWDELHI_CI NEWDELHI_DP NEWDELHI_POCI REUNION_LAT REUNION_LON REUNION_TYPE REUNION_WIND REUNION_PRES REUNION_TNUM REUNION_CI REUNION_RMW REUNION_R34_NE REUNION_R34_SE REUNION_R34_SW REUNION_R34_NW REUNION_R50_NE REUNION_R50_SE REUNION_R50_SW REUNION_R50_NW REUNION_R64_NE REUNION_R64_SE REUNION_R64_SW REUNION_R64_NW BOM_LAT BOM_LON BOM_TYPE BOM_WIND BOM_PRES BOM_TNUM BOM_CI BOM_RMW BOM_R34_NE BOM_R34_SE BOM_R34_SW BOM_R34_NW BOM_R50_NE BOM_R50_SE BOM_R50_SW BOM_R50_NW BOM_R64_NE BOM_R64_SE BOM_R64_SW BOM_R64_NW BOM_ROCI BOM_POCI BOM_EYE BOM_POS_METHOD BOM_PRES_METHOD NADI_LAT NADI_LON NADI_CAT NADI_WIND NADI_PRES WELLINGTON_LAT WELLINGTON_LON WELLINGTON_WIND WELLINGTON_PRES DS824_LAT DS824_LON DS824_STAGE DS824_WIND DS824_PRES TD9636_LAT TD9636_LON TD9636_STAGE TD9636_WIND TD9636_PRES TD9635_LAT TD9635_LON TD9635_WIND TD9635_PRES TD9635_ROCI NEUMANN_LAT NEUMANN_LON NEUMANN_CLASS NEUMANN_WIND NEUMANN_PRES MLC_LAT MLC_LON MLC_CLASS MLC_WIND MLC_PRES USA_GUST BOM_GUST BOM_GUST_PER REUNION_GUST REUNION_GUST_PER USA_SEAHGT USA_SEARAD_NE USA_SEARAD_SE USA_SEARAD_SW USA_SEARAD_NW STORM_SPEED STORM_DIR
2010278N18110 2010 66 WP MM NOT_NAMED 2010-10-04 12:00:00 TS 17.5000 110.100 main 89 67 O_O___________ jtwc_wp WP142010 17.8000 110.300 DB 15 1010 -3 17.2000 109.900 1 25 1004 7 290
2010278N18110 2010 66 WP MM NOT_NAMED 2010-10-04 15:00:00 TS 17.6103 109.775 main 67 44 P_P___________ WP142010 17.7055 109.732 DB 20 1007 -3 17.5150 109.818 1 27 1004 6 298
2010278N18110 2010 66 WP MM NOT_NAMED 2010-10-04 18:00:00 TS 17.8000 109.500 main 44 23 O_O___________ jtwc_wp WP142010 17.8000 109.300 TD 25 1004 -1 17.8000 109.700 1 29 1004 7 319
2010278N18110 2010 66 WP MM NOT_NAMED 2010-10-04 21:00:00 TS 18.1136 109.313 main 23 0 P_P___________ WP142010 18.1973 109.103 TD 27 1002 -1 18.0300 109.523 1 29 1004 7 336
2010278N18110 2010 66 WP MM NOT_NAMED 2010-10-05 00:00:00 TS 18.4500 109.200 main 0 0 O_O___________ jtwc_wp WP142010 18.7000 109.100 TD 30 1000 -1 1006 150 40 18.2000 109.300 1 29 1004 6 343
2010278N18110 2010 66 WP MM NOT_NAMED 2010-10-05 03:00:00 TS 18.6975 109.124 main 0 0 P_P___________ WP142010 19.0725 109.212 TD 30 1000 -1 1006 150 40 18.3226 109.035 1 29 1004 5 348
2010278N18110 2010 66 WP MM NOT_NAMED 2010-10-05 06:00:00 TS 18.9000 109.100 main 0 0 O_O___________ jtwc_wp WP142010 19.4000 109.400 TD 30 1000 -1 1006 150 40 18.4000 108.800 1 29 1004 4 0
2010278N18110 2010 66 WP MM NOT_NAMED 2010-10-05 09:00:00 TS 19.0899 109.106 main 0 0 P_P___________ WP142010 19.7224 109.535 TD 30 1000 -1 1006 150 40 18.4574 108.677 1 29 1004 3 0
2010278N18110 2010 66 WP MM NOT_NAMED 2010-10-05 12:00:00 TS 19.1889 109.089 main 0 0 O_OO__________ jtwc_wp WP142010 20.0000 109.700 TD 30 1000 -1 1006 150 40 18.5000 108.600 1 29 1004 18.7000 108.600 TD 25 1002 2 352
2010278N18110 2010 66 WP MM NOT_NAMED 2010-10-05 15:00:00 TS 19.2560 109.086 main 0 0 P_PP__________ WP142010 20.2225 109.928 TD 27 1002 -1 1006 150 40 18.5425 108.500 1 29 1004 18.7500 108.572 TD 25 1002 1 276
2010278N18110 2010 66 WP MM NOT_NAMED 2010-10-05 18:00:00 TS 19.2000 108.970 main 0 0 O_OO__________ jtwc_wp WP142010 20.4000 110.200 TD 25 1004 -1 1006 150 40 18.6000 108.400 1 29 1004 18.8000 108.500 TD 25 1002 3 247
2010278N18110 2010 66 WP MM NOT_NAMED 2010-10-05 21:00:00 TS 19.1280 108.762 main 0 0 P_PP__________ WP142010 20.5551 110.495 TD 22 1005 -1 1006 150 30 18.6925 108.300 1 29 1004 18.8500 108.358 TD 25 1002 5 252
2010278N18110 2010 66 WP MM NOT_NAMED 2010-10-06 00:00:00 TS 19.0556 108.489 main 21 21 O_OO__________ jtwc_wp WP142010 20.7000 110.800 DB 20 1007 -3 1006 150 20 18.8000 108.200 1 29 1004 18.9000 108.200 TD 25 1002 7 254
2010278N18110 2010 66 WP MM NOT_NAMED 2010-10-06 03:00:00 TS 18.9400 108.074 main 63 63 __PP__________ WP142010 DB -3 18.9225 108.063 1 26 1004 18.9575 108.085 TD 25 1002 5 263
2010278N18110 2010 66 WP MM NOT_NAMED 2010-10-06 06:00:00 TS 19.0000 108.000 main 71 71 __OO__________ 19.0000 108.000 1 23 1004 19.0000 108.000 TD 25 1002 1 317
2010278N18110 2010 66 WP MM NOT_NAMED 2010-10-06 09:00:00 TS 18.9900 108.024 main 71 62 __PP__________ 18.9725 108.113 1 23 1005 19.0075 107.935 TD 25 1003 1 116
2010278N18110 2010 66 WP MM NOT_NAMED 2010-10-06 12:00:00 TS 18.9429 108.129 main 63 42 __OO__________ 18.9000 108.300 1 23 1006 19.0000 107.900 TD 25 1004 3 113
2010278N18110 2010 66 WP MM NOT_NAMED 2010-10-06 15:00:00 TS 18.8942 108.269 main 42 31 __PP__________ 18.8425 108.458 1 23 1006 18.9975 107.893 TD 25 1004 3 108
2010278N18110 2010 66 WP MM NOT_NAMED 2010-10-06 18:00:00 TS 18.8400 108.460 main 21 0 __OO__________ 18.8000 108.600 1 23 1006 19.0000 107.900 TD 25 1004 4 104
2010278N18110 2010 66 WP MM NOT_NAMED 2010-10-06 21:00:00 TS 18.7925 108.715 main 0 0 __P___________ 18.7925 108.715 1 23 1006 TD 3 97
2010278N18110 2010 66 WP MM NOT_NAMED 2010-10-07 00:00:00 TS 18.8000 108.800 main 0 0 __O___________ 18.8000 108.800 1 23 1006 1 87
2010278N18110 2010 66 WP MM NOT_NAMED 2010-10-07 03:00:00 TS 18.8000 108.858 main 0 0 __P___________ 18.8000 108.858 1 23 1006 1 90
2010278N18110 2010 66 WP MM NOT_NAMED 2010-10-07 06:00:00 TS 18.8000 108.900 main 0 0 __O___________ 18.8000 108.900 1 23 1006 1 90
2010278N18110 2010 66 WP MM NOT_NAMED 2010-10-07 09:00:00 TS 18.8000 108.943 main 0 0 __P___________ 18.8000 108.943 1 21 1006 1 90
2010278N18110 2010 66 WP MM NOT_NAMED 2010-10-07 12:00:00 TS 18.8000 109.000 main 0 0 __O___________ 18.8000 109.000 0 19 1006 1 90
2010278N18110 2010 66 WP MM NOT_NAMED 2010-10-07 15:00:00 TS 18.8000 109.092 main 0 0 __P___________ 18.8000 109.092 0 19 1006 2 90
2010278N18110 2010 66 WP MM NOT_NAMED 2010-10-07 18:00:00 TS 18.8000 109.200 main 0 0 __O___________ 18.8000 109.200 0 19 1006 2 92
2010278N18110 2010 66 WP MM NOT_NAMED 2010-10-07 21:00:00 TS 18.7925 109.293 main 0 0 __P___________ 18.7925 109.293 0 19 1006 2 90
2010278N18110 2010 66 WP MM NOT_NAMED 2010-10-08 00:00:00 TS 18.8000 109.400 main 0 0 __O___________ 18.8000 109.400 0 19 1006 2 77
2010278N18110 2010 66 WP MM NOT_NAMED 2010-10-08 03:00:00 TS 18.8425 109.528 main 0 0 __P___________ 18.8425 109.528 0 19 1005 3 70
2010278N18110 2010 66 WP MM NOT_NAMED 2010-10-08 06:00:00 TS 18.9000 109.700 main 0 0 __O___________ 18.9000 109.700 0 19 1004 4 75
2010278N18110 2010 66 WP MM NOT_NAMED 2010-10-08 09:00:00 TS 18.9501 109.957 main 0 0 __P___________ 18.9501 109.957 0 19 1004 5 78
2010278N18110 2010 66 WP MM NOT_NAMED 2010-10-08 12:00:00 TS 19.0000 110.200 main 0 0 __O___________ 19.0000 110.200 0 19 1004 4 74
2010278N18110 2010 66 WP MM NOT_NAMED 2010-10-08 15:00:00 TS 19.0499 110.330 main 0 0 __P___________ 19.0499 110.330 0 19 1004 2 62
2010278N18110 2010 66 WP MM NOT_NAMED 2010-10-08 18:00:00 TS 19.1000 110.400 main 0 0 __O___________ 19.1000 110.400 0 19 1004 2 51
2010278N18110 2010 66 WP MM NOT_NAMED 2010-10-08 21:00:00 TS 19.1425 110.458 main 0 0 __P___________ 19.1425 110.458 0 19 1004 1 43
2010278N18110 2010 66 WP MM NOT_NAMED 2010-10-09 00:00:00 TS 19.2000 110.500 main 0 0 __O___________ 19.2000 110.500 0 19 1004 2 30
2010278N18110 2010 66 WP MM NOT_NAMED 2010-10-09 03:00:00 TS 19.2925 110.550 main 0 0 __P___________ 19.2925 110.550 0 19 1004 2 27
2010278N18110 2010 66 WP MM NOT_NAMED 2010-10-09 06:00:00 TS 19.4000 110.600 main 0 0 __O___________ 19.4000 110.600 0 19 1004 2 28
2010278N18110 2010 66 WP MM NOT_NAMED 2010-10-09 09:00:00 TS 19.4700 110.650 main 0 0 __P___________ 19.4700 110.650 0 19 1004 2 27
2010278N18110 2010 66 WP MM NOT_NAMED 2010-10-09 12:00:00 TS 19.6000 110.700 main 0 0 __O___________ 19.6000 110.700 0 19 1004 4 11
2010278N18110 2010 66 WP MM NOT_NAMED 2010-10-09 15:00:00 TS 19.8775 110.735 main 0 0 __P___________ 19.8775 110.735 0 21 1003 6 9
2010278N18110 2010 66 WP MM NOT_NAMED 2010-10-09 18:00:00 TS 20.2000 110.800 main 15 15 __O___________ 20.2000 110.800 1 23 1002 6 16
2010278N18110 2010 66 WP MM NOT_NAMED 2010-10-09 21:00:00 TS 20.4874 110.912 main 41 41 __P___________ 20.4874 110.912 1 23 1002 6 29
2010278N18110 2010 66 WP MM NOT_NAMED 2010-10-10 00:00:00 TS 20.7000 111.100 main 66 66 __O___________ 20.7000 111.100 1 23 1002 5 55
2010278N18110 2010 66 WP MM NOT_NAMED 2010-10-10 03:00:00 TS 20.7877 111.375 main 67 67 __P___________ 20.7877 111.375 1 23 1002 6 80
2010278N18110 2010 66 WP MM NOT_NAMED 2010-10-10 06:00:00 TS 20.8000 111.700 main 78 __O___________ 20.8000 111.700 1 23 1002 6 88

デジタル台風データ・検索

IBTrACS Databaseについて

本データベースは、米国NOAAが公開する1842年以降の世界の熱帯低気圧のベストトラックデータアーカイブInternational Best Track Archive for Climate Stewardship (IBTrACS)を、ウェブで閲覧しやすい形式に変換したものです。

最終更新日:2021-12-01